Terminal Aerodrome Forecast
Issued by NWS Central Illinois

Home | Current Version | Previous Version | Text Only | Print | Product List | Glossary On
Versions: 1 2 3 4 5 6 7 8 9 10 11 12 13 14 15 16 17 18
000
FTUS43 KILX 271500 AAB
TAFSPI
TAF AMD
KSPI 271510Z 2715/2812 22012KT P6SM OVC006
      TEMPO 2715/2716 2SM -RA BR
     FM271700 27012KT P6SM OVC015
     FM280000 31006KT P6SM SCT020 OVC120=

USA.gov is the U.S. government's official web portal to all federal, state and local government web resources and services.